sensor_id;sensor_type;location;lat;lon;timestamp;P1;durP1;ratioP1;P2;durP2;ratioP2
46090;SDS011;31826;53.572;10.170;2022-09-13T00:00:43;6.60;;;3.00;;
46090;SDS011;31826;53.572;10.170;2022-09-13T00:03:09;5.38;;;2.70;;
46090;SDS011;31826;53.572;10.170;2022-09-13T00:05:36;4.32;;;2.45;;
46090;SDS011;31826;53.572;10.170;2022-09-13T00:08:03;5.40;;;2.77;;
46090;SDS011;31826;53.572;10.170;2022-09-13T00:10:29;4.20;;;2.30;;
46090;SDS011;31826;53.572;10.170;2022-09-13T00:12:58;4.75;;;2.65;;
46090;SDS011;31826;53.572;10.170;2022-09-13T00:15:24;5.47;;;2.60;;
46090;SDS011;31826;53.572;10.170;2022-09-13T00:17:49;4.38;;;2.40;;
46090;SDS011;31826;53.572;10.170;2022-09-13T00:20:15;5.07;;;2.60;;
46090;SDS011;31826;53.572;10.170;2022-09-13T00:22:41;5.35;;;2.60;;
46090;SDS011;31826;53.572;10.170;2022-09-13T00:25:07;4.13;;;2.42;;
46090;SDS011;31826;53.572;10.170;2022-09-13T00:27:33;5.28;;;2.60;;
46090;SDS011;31826;53.572;10.170;2022-09-13T00:30:00;4.38;;;2.50;;
46090;SDS011;31826;53.572;10.170;2022-09-13T00:32:27;5.63;;;2.70;;
46090;SDS011;31826;53.572;10.170;2022-09-13T00:34:53;4.27;;;2.50;;
46090;SDS011;31826;53.572;10.170;2022-09-13T00:37:19;5.90;;;2.70;;
46090;SDS011;31826;53.572;10.170;2022-09-13T00:39:45;5.77;;;2.47;;
46090;SDS011;31826;53.572;10.170;2022-09-13T00:42:10;5.70;;;2.95;;
46090;SDS011;31826;53.572;10.170;2022-09-13T00:47:50;6.28;;;2.90;;
46090;SDS011;31826;53.572;10.170;2022-09-13T00:50:23;5.97;;;3.20;;
46090;SDS011;31826;53.572;10.170;2022-09-13T00:52:56;7.03;;;3.00;;
46090;SDS011;31826;53.572;10.170;2022-09-13T00:55:28;5.45;;;2.88;;
46090;SDS011;31826;53.572;10.170;2022-09-13T00:58:00;6.32;;;3.03;;
46090;SDS011;31826;53.572;10.170;2022-09-13T01:00:31;6.00;;;2.90;;
46090;SDS011;31826;53.572;10.170;2022-09-13T01:02:57;10.10;;;3.72;;
46090;SDS011;31826;53.572;10.170;2022-09-13T01:05:32;6.68;;;3.13;;
46090;SDS011;31826;53.572;10.170;2022-09-13T01:08:06;7.45;;;3.33;;
46090;SDS011;31826;53.572;10.170;2022-09-13T01:10:40;6.03;;;3.30;;
46090;SDS011;31826;53.572;10.170;2022-09-13T01:13:08;5.97;;;3.40;;
46090;SDS011;31826;53.572;10.170;2022-09-13T01:15:42;8.32;;;3.50;;
46090;SDS011;31826;53.572;10.170;2022-09-13T01:18:08;6.70;;;3.10;;
46090;SDS011;31826;53.572;10.170;2022-09-13T01:34:43;6.78;;;3.40;;
46090;SDS011;31826;53.572;10.170;2022-09-13T01:45:35;8.05;;;3.78;;
46090;SDS011;31826;53.572;10.170;2022-09-13T01:48:35;8.93;;;3.97;;
46090;SDS011;31826;53.572;10.170;2022-09-13T01:58:00;9.55;;;4.25;;
46090;SDS011;31826;53.572;10.170;2022-09-13T02:00:18;8.27;;;4.00;;
46090;SDS011;31826;53.572;10.170;2022-09-13T02:05:53;7.53;;;4.28;;
46090;SDS011;31826;53.572;10.170;2022-09-13T02:08:42;8.30;;;4.00;;
46090;SDS011;31826;53.572;10.170;2022-09-13T02:11:12;8.05;;;3.90;;
46090;SDS011;31826;53.572;10.170;2022-09-13T02:13:45;8.43;;;4.47;;
46090;SDS011;31826;53.572;10.170;2022-09-13T02:16:14;8.35;;;4.13;;
46090;SDS011;31826;53.572;10.170;2022-09-13T02:18:50;7.78;;;4.00;;
46090;SDS011;31826;53.572;10.170;2022-09-13T02:21:26;8.25;;;3.88;;
46090;SDS011;31826;53.572;10.170;2022-09-13T02:24:04;9.18;;;4.38;;
46090;SDS011;31826;53.572;10.170;2022-09-13T02:26:33;6.65;;;3.80;;
46090;SDS011;31826;53.572;10.170;2022-09-13T02:29:03;9.40;;;4.65;;
46090;SDS011;31826;53.572;10.170;2022-09-13T02:31:33;8.07;;;3.90;;
46090;SDS011;31826;53.572;10.170;2022-09-13T02:34:07;7.55;;;4.00;;
46090;SDS011;31826;53.572;10.170;2022-09-13T02:36:46;8.45;;;3.92;;
46090;SDS011;31826;53.572;10.170;2022-09-13T02:39:15;8.27;;;4.10;;
46090;SDS011;31826;53.572;10.170;2022-09-13T02:49:33;7.93;;;4.00;;
46090;SDS011;31826;53.572;10.170;2022-09-13T02:52:19;9.33;;;4.30;;
46090;SDS011;31826;53.572;10.170;2022-09-13T03:00:21;8.68;;;4.00;;
46090;SDS011;31826;53.572;10.170;2022-09-13T03:02:47;10.57;;;4.40;;
46090;SDS011;31826;53.572;10.170;2022-09-13T03:05:13;7.85;;;4.28;;
46090;SDS011;31826;53.572;10.170;2022-09-13T03:07:39;8.25;;;4.20;;
46090;SDS011;31826;53.572;10.170;2022-09-13T03:10:05;8.73;;;4.20;;
46090;SDS011;31826;53.572;10.170;2022-09-13T03:34:53;8.98;;;4.55;;
46090;SDS011;31826;53.572;10.170;2022-09-13T03:40:54;8.90;;;4.60;;
46090;SDS011;31826;53.572;10.170;2022-09-13T03:42:56;9.32;;;4.40;;
46090;SDS011;31826;53.572;10.170;2022-09-13T03:45:28;9.30;;;5.00;;
46090;SDS011;31826;53.572;10.170;2022-09-13T03:47:59;10.52;;;5.15;;
46090;SDS011;31826;53.572;10.170;2022-09-13T03:50:27;10.73;;;5.22;;
46090;SDS011;31826;53.572;10.170;2022-09-13T03:52:55;10.30;;;4.70;;
46090;SDS011;31826;53.572;10.170;2022-09-13T03:55:25;9.50;;;5.13;;
46090;SDS011;31826;53.572;10.170;2022-09-13T03:57:52;10.80;;;5.18;;
46090;SDS011;31826;53.572;10.170;2022-09-13T04:00:18;14.00;;;5.20;;
46090;SDS011;31826;53.572;10.170;2022-09-13T04:02:44;10.00;;;5.28;;
46090;SDS011;31826;53.572;10.170;2022-09-13T04:05:09;12.55;;;5.35;;
46090;SDS011;31826;53.572;10.170;2022-09-13T04:07:37;10.95;;;5.07;;
46090;SDS011;31826;53.572;10.170;2022-09-13T04:10:03;10.63;;;5.28;;
46090;SDS011;31826;53.572;10.170;2022-09-13T04:12:29;11.27;;;5.43;;
46090;SDS011;31826;53.572;10.170;2022-09-13T04:14:55;10.35;;;5.38;;
46090;SDS011;31826;53.572;10.170;2022-09-13T04:17:21;13.07;;;5.80;;
46090;SDS011;31826;53.572;10.170;2022-09-13T04:19:47;11.77;;;5.55;;
46090;SDS011;31826;53.572;10.170;2022-09-13T04:22:13;12.90;;;5.70;;
46090;SDS011;31826;53.572;10.170;2022-09-13T04:24:39;11.20;;;5.95;;
46090;SDS011;31826;53.572;10.170;2022-09-13T04:27:07;11.35;;;5.68;;
46090;SDS011;31826;53.572;10.170;2022-09-13T04:29:33;11.35;;;6.13;;
46090;SDS011;31826;53.572;10.170;2022-09-13T04:31:58;11.07;;;5.90;;
46090;SDS011;31826;53.572;10.170;2022-09-13T04:34:24;12.18;;;6.53;;
46090;SDS011;31826;53.572;10.170;2022-09-13T04:36:50;14.65;;;6.82;;
46090;SDS011;31826;53.572;10.170;2022-09-13T04:39:17;13.60;;;6.68;;
46090;SDS011;31826;53.572;10.170;2022-09-13T04:41:44;12.93;;;6.70;;
46090;SDS011;31826;53.572;10.170;2022-09-13T04:44:12;15.18;;;7.40;;
46090;SDS011;31826;53.572;10.170;2022-09-13T04:46:39;14.15;;;7.22;;
46090;SDS011;31826;53.572;10.170;2022-09-13T04:49:05;14.15;;;7.22;;
46090;SDS011;31826;53.572;10.170;2022-09-13T04:51:31;14.77;;;7.70;;
46090;SDS011;31826;53.572;10.170;2022-09-13T04:53:57;13.23;;;7.32;;
46090;SDS011;31826;53.572;10.170;2022-09-13T04:56:24;15.98;;;7.22;;
46090;SDS011;31826;53.572;10.170;2022-09-13T04:58:52;14.98;;;8.13;;
46090;SDS011;31826;53.572;10.170;2022-09-13T05:01:19;15.55;;;8.40;;
46090;SDS011;31826;53.572;10.170;2022-09-13T05:03:45;14.15;;;7.63;;
46090;SDS011;31826;53.572;10.170;2022-09-13T05:06:12;17.33;;;9.35;;
46090;SDS011;31826;53.572;10.170;2022-09-13T05:08:39;17.25;;;8.30;;
46090;SDS011;31826;53.572;10.170;2022-09-13T05:11:05;19.08;;;9.38;;
46090;SDS011;31826;53.572;10.170;2022-09-13T05:13:32;19.73;;;10.02;;
46090;SDS011;31826;53.572;10.170;2022-09-13T05:15:59;19.30;;;9.45;;
46090;SDS011;31826;53.572;10.170;2022-09-13T05:18:29;22.05;;;10.55;;
46090;SDS011;31826;53.572;10.170;2022-09-13T05:20:58;23.25;;;12.23;;
46090;SDS011;31826;53.572;10.170;2022-09-13T05:23:26;24.45;;;12.25;;
46090;SDS011;31826;53.572;10.170;2022-09-13T05:25:57;24.17;;;11.88;;
46090;SDS011;31826;53.572;10.170;2022-09-13T05:28:30;25.38;;;12.73;;
46090;SDS011;31826;53.572;10.170;2022-09-13T05:31:06;25.80;;;12.68;;
46090;SDS011;31826;53.572;10.170;2022-09-13T05:33:35;26.83;;;12.73;;
46090;SDS011;31826;53.572;10.170;2022-09-13T05:36:02;28.90;;;14.17;;
46090;SDS011;31826;53.572;10.170;2022-09-13T05:38:30;26.67;;;12.93;;
46090;SDS011;31826;53.572;10.170;2022-09-13T05:40:57;29.63;;;12.80;;
46090;SDS011;31826;53.572;10.170;2022-09-13T05:43:25;22.77;;;12.80;;
46090;SDS011;31826;53.572;10.170;2022-09-13T05:46:05;23.77;;;12.80;;
46090;SDS011;31826;53.572;10.170;2022-09-13T05:48:38;25.83;;;13.07;;
46090;SDS011;31826;53.572;10.170;2022-09-13T05:53:34;26.23;;;12.40;;
46090;SDS011;31826;53.572;10.170;2022-09-13T05:56:05;26.63;;;13.80;;
46090;SDS011;31826;53.572;10.170;2022-09-13T05:58:32;26.98;;;13.05;;
46090;SDS011;31826;53.572;10.170;2022-09-13T06:00:59;29.60;;;13.35;;
46090;SDS011;31826;53.572;10.170;2022-09-13T06:03:25;32.72;;;14.13;;
46090;SDS011;31826;53.572;10.170;2022-09-13T06:05:54;25.30;;;13.63;;
46090;SDS011;31826;53.572;10.170;2022-09-13T06:08:21;29.17;;;14.20;;
46090;SDS011;31826;53.572;10.170;2022-09-13T06:10:55;23.15;;;13.13;;
46090;SDS011;31826;53.572;10.170;2022-09-13T06:13:22;26.50;;;13.30;;
46090;SDS011;31826;53.572;10.170;2022-09-13T06:15:48;25.35;;;13.18;;
46090;SDS011;31826;53.572;10.170;2022-09-13T06:18:15;26.60;;;13.30;;
46090;SDS011;31826;53.572;10.170;2022-09-13T06:20:41;24.15;;;12.55;;
46090;SDS011;31826;53.572;10.170;2022-09-13T06:23:07;24.85;;;12.43;;
46090;SDS011;31826;53.572;10.170;2022-09-13T06:25:33;25.10;;;12.85;;
46090;SDS011;31826;53.572;10.170;2022-09-13T06:27:59;22.85;;;12.00;;
46090;SDS011;31826;53.572;10.170;2022-09-13T06:30:24;22.90;;;11.93;;
46090;SDS011;31826;53.572;10.170;2022-09-13T06:32:50;23.43;;;12.50;;
46090;SDS011;31826;53.572;10.170;2022-09-13T06:35:16;23.07;;;12.30;;
46090;SDS011;31826;53.572;10.170;2022-09-13T06:37:42;24.37;;;12.27;;
46090;SDS011;31826;53.572;10.170;2022-09-13T06:40:08;23.48;;;11.48;;
46090;SDS011;31826;53.572;10.170;2022-09-13T06:42:34;23.55;;;11.07;;
46090;SDS011;31826;53.572;10.170;2022-09-13T06:45:01;20.17;;;10.83;;
46090;SDS011;31826;53.572;10.170;2022-09-13T06:47:27;21.13;;;11.13;;
46090;SDS011;31826;53.572;10.170;2022-09-13T06:49:52;23.88;;;12.38;;
46090;SDS011;31826;53.572;10.170;2022-09-13T06:52:18;22.57;;;11.33;;
46090;SDS011;31826;53.572;10.170;2022-09-13T06:54:44;22.03;;;11.13;;
46090;SDS011;31826;53.572;10.170;2022-09-13T06:57:10;22.23;;;11.15;;
46090;SDS011;31826;53.572;10.170;2022-09-13T06:59:35;19.90;;;10.52;;
46090;SDS011;31826;53.572;10.170;2022-09-13T07:02:01;24.13;;;11.18;;
46090;SDS011;31826;53.572;10.170;2022-09-13T07:04:27;19.67;;;10.80;;
46090;SDS011;31826;53.572;10.170;2022-09-13T07:06:55;21.05;;;10.25;;
46090;SDS011;31826;53.572;10.170;2022-09-13T07:09:22;19.05;;;9.60;;
46090;SDS011;31826;53.572;10.170;2022-09-13T07:11:50;17.52;;;9.07;;
46090;SDS011;31826;53.572;10.170;2022-09-13T07:14:18;18.58;;;9.60;;
46090;SDS011;31826;53.572;10.170;2022-09-13T07:16:46;18.35;;;9.73;;
46090;SDS011;31826;53.572;10.170;2022-09-13T07:19:15;18.17;;;8.93;;
46090;SDS011;31826;53.572;10.170;2022-09-13T07:21:44;19.38;;;9.50;;
46090;SDS011;31826;53.572;10.170;2022-09-13T07:24:10;16.00;;;8.75;;
46090;SDS011;31826;53.572;10.170;2022-09-13T07:26:36;21.95;;;9.68;;
46090;SDS011;31826;53.572;10.170;2022-09-13T07:29:06;16.23;;;8.93;;
46090;SDS011;31826;53.572;10.170;2022-09-13T07:31:37;18.45;;;9.15;;
46090;SDS011;31826;53.572;10.170;2022-09-13T07:34:04;16.85;;;8.60;;
46090;SDS011;31826;53.572;10.170;2022-09-13T07:36:32;17.85;;;7.75;;
46090;SDS011;31826;53.572;10.170;2022-09-13T07:39:00;15.10;;;6.95;;
46090;SDS011;31826;53.572;10.170;2022-09-13T07:41:27;14.82;;;7.20;;
46090;SDS011;31826;53.572;10.170;2022-09-13T07:43:54;15.00;;;6.82;;
46090;SDS011;31826;53.572;10.170;2022-09-13T07:46:21;13.70;;;7.03;;
46090;SDS011;31826;53.572;10.170;2022-09-13T07:48:51;16.63;;;7.18;;
46090;SDS011;31826;53.572;10.170;2022-09-13T07:51:19;12.90;;;6.50;;
46090;SDS011;31826;53.572;10.170;2022-09-13T07:53:50;12.82;;;5.78;;
46090;SDS011;31826;53.572;10.170;2022-09-13T07:56:19;13.03;;;5.90;;
46090;SDS011;31826;53.572;10.170;2022-09-13T07:58:46;11.98;;;5.72;;
46090;SDS011;31826;53.572;10.170;2022-09-13T08:01:21;12.17;;;5.40;;
46090;SDS011;31826;53.572;10.170;2022-09-13T08:03:53;14.80;;;6.20;;
46090;SDS011;31826;53.572;10.170;2022-09-13T08:06:21;13.20;;;5.70;;
46090;SDS011;31826;53.572;10.170;2022-09-13T08:08:47;12.07;;;5.45;;
46090;SDS011;31826;53.572;10.170;2022-09-13T08:11:17;13.60;;;5.85;;
46090;SDS011;31826;53.572;10.170;2022-09-13T08:13:51;13.77;;;5.75;;
46090;SDS011;31826;53.572;10.170;2022-09-13T08:16:18;11.77;;;5.22;;
46090;SDS011;31826;53.572;10.170;2022-09-13T08:18:46;11.30;;;4.97;;
46090;SDS011;31826;53.572;10.170;2022-09-13T08:21:13;12.68;;;4.90;;
46090;SDS011;31826;53.572;10.170;2022-09-13T08:23:40;15.25;;;5.05;;
46090;SDS011;31826;53.572;10.170;2022-09-13T08:26:06;9.33;;;3.80;;
46090;SDS011;31826;53.572;10.170;2022-09-13T08:28:37;10.20;;;3.20;;
46090;SDS011;31826;53.572;10.170;2022-09-13T08:31:05;9.57;;;3.33;;
46090;SDS011;31826;53.572;10.170;2022-09-13T08:33:32;8.32;;;3.20;;
46090;SDS011;31826;53.572;10.170;2022-09-13T08:35:59;10.95;;;3.30;;
46090;SDS011;31826;53.572;10.170;2022-09-13T08:38:25;6.30;;;2.20;;
46090;SDS011;31826;53.572;10.170;2022-09-13T08:40:58;9.23;;;2.97;;
46090;SDS011;31826;53.572;10.170;2022-09-13T08:46:13;5.40;;;1.98;;
46090;SDS011;31826;53.572;10.170;2022-09-13T08:48:54;5.88;;;1.80;;
46090;SDS011;31826;53.572;10.170;2022-09-13T08:51:33;6.93;;;1.90;;
46090;SDS011;31826;53.572;10.170;2022-09-13T08:54:05;4.23;;;1.63;;
46090;SDS011;31826;53.572;10.170;2022-09-13T08:56:41;5.45;;;1.30;;
46090;SDS011;31826;53.572;10.170;2022-09-13T09:04:47;8.65;;;1.80;;
46090;SDS011;31826;53.572;10.170;2022-09-13T09:07:40;6.22;;;1.40;;
46090;SDS011;31826;53.572;10.170;2022-09-13T09:12:42;4.90;;;1.30;;
46090;SDS011;31826;53.572;10.170;2022-09-13T09:15:33;5.00;;;1.20;;
46090;SDS011;31826;53.572;10.170;2022-09-13T09:18:51;4.63;;;1.10;;
46090;SDS011;31826;53.572;10.170;2022-09-13T09:20:55;4.57;;;1.13;;
46090;SDS011;31826;53.572;10.170;2022-09-13T09:23:25;6.10;;;1.70;;
46090;SDS011;31826;53.572;10.170;2022-09-13T09:26:15;3.80;;;0.90;;
46090;SDS011;31826;53.572;10.170;2022-09-13T09:28:46;5.15;;;0.98;;
46090;SDS011;31826;53.572;10.170;2022-09-13T09:31:21;4.13;;;1.00;;
46090;SDS011;31826;53.572;10.170;2022-09-13T09:37:05;4.70;;;1.20;;
46090;SDS011;31826;53.572;10.170;2022-09-13T09:39:36;3.58;;;0.90;;
46090;SDS011;31826;53.572;10.170;2022-09-13T09:42:04;4.28;;;1.13;;
46090;SDS011;31826;53.572;10.170;2022-09-13T09:44:38;5.70;;;1.37;;
46090;SDS011;31826;53.572;10.170;2022-09-13T09:49:40;4.53;;;0.93;;
46090;SDS011;31826;53.572;10.170;2022-09-13T09:57:56;4.78;;;1.05;;
46090;SDS011;31826;53.572;10.170;2022-09-13T10:00:29;3.60;;;1.00;;
46090;SDS011;31826;53.572;10.170;2022-09-13T10:03:01;4.82;;;1.23;;
46090;SDS011;31826;53.572;10.170;2022-09-13T10:05:35;5.97;;;1.10;;
46090;SDS011;31826;53.572;10.170;2022-09-13T10:08:02;3.50;;;0.95;;
46090;SDS011;31826;53.572;10.170;2022-09-13T10:10:38;2.85;;;0.90;;
46090;SDS011;31826;53.572;10.170;2022-09-13T10:13:14;3.03;;;1.00;;
46090;SDS011;31826;53.572;10.170;2022-09-13T10:19:22;5.93;;;0.93;;
46090;SDS011;31826;53.572;10.170;2022-09-13T10:22:02;5.78;;;0.95;;
46090;SDS011;31826;53.572;10.170;2022-09-13T10:24:33;3.17;;;0.80;;
46090;SDS011;31826;53.572;10.170;2022-09-13T10:26:59;4.15;;;1.23;;
46090;SDS011;31826;53.572;10.170;2022-09-13T10:29:28;4.97;;;1.10;;
46090;SDS011;31826;53.572;10.170;2022-09-13T10:31:54;5.50;;;1.00;;
46090;SDS011;31826;53.572;10.170;2022-09-13T10:34:31;4.05;;;0.88;;
46090;SDS011;31826;53.572;10.170;2022-09-13T10:37:01;7.75;;;1.90;;
46090;SDS011;31826;53.572;10.170;2022-09-13T10:39:35;5.10;;;1.60;;
46090;SDS011;31826;53.572;10.170;2022-09-13T10:44:38;5.93;;;1.00;;
46090;SDS011;31826;53.572;10.170;2022-09-13T10:47:13;4.47;;;0.85;;
46090;SDS011;31826;53.572;10.170;2022-09-13T10:49:49;5.20;;;1.10;;
46090;SDS011;31826;53.572;10.170;2022-09-13T10:54:48;3.63;;;1.05;;
46090;SDS011;31826;53.572;10.170;2022-09-13T11:00:21;5.10;;;1.00;;
46090;SDS011;31826;53.572;10.170;2022-09-13T11:08:59;3.40;;;1.13;;
46090;SDS011;31826;53.572;10.170;2022-09-13T11:11:58;4.68;;;0.98;;
46090;SDS011;31826;53.572;10.170;2022-09-13T11:28:34;3.55;;;1.00;;
46090;SDS011;31826;53.572;10.170;2022-09-13T11:45:19;3.93;;;1.03;;
46090;SDS011;31826;53.572;10.170;2022-09-13T11:56:00;4.43;;;0.80;;
46090;SDS011;31826;53.572;10.170;2022-09-13T11:58:34;5.03;;;1.57;;
46090;SDS011;31826;53.572;10.170;2022-09-13T12:01:16;5.82;;;1.27;;
46090;SDS011;31826;53.572;10.170;2022-09-13T12:04:00;3.05;;;1.20;;
46090;SDS011;31826;53.572;10.170;2022-09-13T12:06:39;2.97;;;1.07;;
46090;SDS011;31826;53.572;10.170;2022-09-13T12:09:31;3.78;;;1.00;;
46090;SDS011;31826;53.572;10.170;2022-09-13T12:12:05;2.95;;;1.30;;
46090;SDS011;31826;53.572;10.170;2022-09-13T12:17:28;3.88;;;1.00;;
46090;SDS011;31826;53.572;10.170;2022-09-13T12:19:54;3.08;;;1.17;;
46090;SDS011;31826;53.572;10.170;2022-09-13T12:22:25;3.95;;;0.88;;
46090;SDS011;31826;53.572;10.170;2022-09-13T12:25:01;3.57;;;1.00;;
46090;SDS011;31826;53.572;10.170;2022-09-13T12:27:38;3.60;;;0.90;;
46090;SDS011;31826;53.572;10.170;2022-09-13T12:32:42;8.60;;;1.60;;
46090;SDS011;31826;53.572;10.170;2022-09-13T12:40:44;3.15;;;0.90;;
46090;SDS011;31826;53.572;10.170;2022-09-13T12:46:36;3.63;;;0.90;;
46090;SDS011;31826;53.572;10.170;2022-09-13T12:49:18;6.15;;;1.02;;
46090;SDS011;31826;53.572;10.170;2022-09-13T12:57:20;4.90;;;0.90;;
46090;SDS011;31826;53.572;10.170;2022-09-13T13:02:58;3.77;;;0.90;;
46090;SDS011;31826;53.572;10.170;2022-09-13T13:05:33;5.28;;;1.02;;
46090;SDS011;31826;53.572;10.170;2022-09-13T13:08:04;3.92;;;1.08;;
46090;SDS011;31826;53.572;10.170;2022-09-13T13:10:32;7.17;;;1.03;;
46090;SDS011;31826;53.572;10.170;2022-09-13T13:13:19;7.07;;;1.20;;
46090;SDS011;31826;53.572;10.170;2022-09-13T13:15:54;6.20;;;1.02;;
46090;SDS011;31826;53.572;10.170;2022-09-13T13:18:23;5.43;;;1.30;;
46090;SDS011;31826;53.572;10.170;2022-09-13T13:23:23;4.67;;;1.30;;
46090;SDS011;31826;53.572;10.170;2022-09-13T13:33:53;4.10;;;1.20;;
46090;SDS011;31826;53.572;10.170;2022-09-13T13:36:45;4.53;;;0.95;;
46090;SDS011;31826;53.572;10.170;2022-09-13T13:57:27;7.72;;;1.20;;
46090;SDS011;31826;53.572;10.170;2022-09-13T14:00:13;3.92;;;0.98;;
46090;SDS011;31826;53.572;10.170;2022-09-13T14:05:21;5.47;;;1.10;;
46090;SDS011;31826;53.572;10.170;2022-09-13T14:11:16;7.68;;;1.25;;
46090;SDS011;31826;53.572;10.170;2022-09-13T14:19:45;6.07;;;1.00;;
46090;SDS011;31826;53.572;10.170;2022-09-13T14:22:18;4.22;;;1.00;;
46090;SDS011;31826;53.572;10.170;2022-09-13T14:24:48;2.47;;;0.80;;
46090;SDS011;31826;53.572;10.170;2022-09-13T14:27:21;5.38;;;1.20;;
46090;SDS011;31826;53.572;10.170;2022-09-13T14:29:53;6.03;;;1.08;;
46090;SDS011;31826;53.572;10.170;2022-09-13T14:32:22;4.32;;;1.10;;
46090;SDS011;31826;53.572;10.170;2022-09-13T14:35:00;8.83;;;1.20;;
46090;SDS011;31826;53.572;10.170;2022-09-13T14:37:30;7.43;;;1.50;;
46090;SDS011;31826;53.572;10.170;2022-09-13T14:40:16;6.73;;;1.60;;
46090;SDS011;31826;53.572;10.170;2022-09-13T14:42:47;4.22;;;0.80;;
46090;SDS011;31826;53.572;10.170;2022-09-13T14:45:25;5.78;;;1.20;;
46090;SDS011;31826;53.572;10.170;2022-09-13T14:50:30;5.57;;;1.15;;
46090;SDS011;31826;53.572;10.170;2022-09-13T14:53:13;6.03;;;1.30;;
46090;SDS011;31826;53.572;10.170;2022-09-13T14:55:49;7.83;;;1.27;;
46090;SDS011;31826;53.572;10.170;2022-09-13T14:58:27;4.63;;;1.00;;
46090;SDS011;31826;53.572;10.170;2022-09-13T15:00:59;4.95;;;1.40;;
46090;SDS011;31826;53.572;10.170;2022-09-13T15:03:30;6.22;;;1.05;;
46090;SDS011;31826;53.572;10.170;2022-09-13T15:05:57;5.65;;;1.40;;
46090;SDS011;31826;53.572;10.170;2022-09-13T15:10:58;7.20;;;1.25;;
46090;SDS011;31826;53.572;10.170;2022-09-13T15:13:31;7.50;;;2.03;;
46090;SDS011;31826;53.572;10.170;2022-09-13T15:15:57;8.95;;;1.75;;
46090;SDS011;31826;53.572;10.170;2022-09-13T15:18:25;5.72;;;1.30;;
46090;SDS011;31826;53.572;10.170;2022-09-13T15:23:36;5.32;;;1.33;;
46090;SDS011;31826;53.572;10.170;2022-09-13T15:31:09;3.88;;;1.27;;
46090;SDS011;31826;53.572;10.170;2022-09-13T15:33:43;6.20;;;1.10;;
46090;SDS011;31826;53.572;10.170;2022-09-13T15:41:49;4.20;;;1.00;;
46090;SDS011;31826;53.572;10.170;2022-09-13T15:44:20;5.20;;;1.33;;
46090;SDS011;31826;53.572;10.170;2022-09-13T15:46:47;4.15;;;1.20;;
46090;SDS011;31826;53.572;10.170;2022-09-13T15:49:40;5.28;;;1.48;;
46090;SDS011;31826;53.572;10.170;2022-09-13T15:52:12;3.95;;;1.15;;
46090;SDS011;31826;53.572;10.170;2022-09-13T15:54:39;5.55;;;1.23;;
46090;SDS011;31826;53.572;10.170;2022-09-13T15:57:16;3.55;;;1.50;;
46090;SDS011;31826;53.572;10.170;2022-09-13T15:59:45;9.03;;;1.40;;
46090;SDS011;31826;53.572;10.170;2022-09-13T16:02:18;4.93;;;1.07;;
46090;SDS011;31826;53.572;10.170;2022-09-13T16:04:52;5.25;;;1.25;;
46090;SDS011;31826;53.572;10.170;2022-09-13T16:07:19;8.38;;;1.70;;
46090;SDS011;31826;53.572;10.170;2022-09-13T16:09:45;7.53;;;1.20;;
46090;SDS011;31826;53.572;10.170;2022-09-13T16:12:12;3.60;;;1.13;;
46090;SDS011;31826;53.572;10.170;2022-09-13T16:14:38;6.63;;;1.45;;
46090;SDS011;31826;53.572;10.170;2022-09-13T16:17:11;7.43;;;1.40;;
46090;SDS011;31826;53.572;10.170;2022-09-13T16:19:43;5.80;;;1.20;;
46090;SDS011;31826;53.572;10.170;2022-09-13T16:22:08;6.35;;;1.02;;
46090;SDS011;31826;53.572;10.170;2022-09-13T16:24:34;6.05;;;1.10;;
46090;SDS011;31826;53.572;10.170;2022-09-13T16:27:01;2.50;;;1.23;;
46090;SDS011;31826;53.572;10.170;2022-09-13T16:29:28;5.53;;;1.08;;
46090;SDS011;31826;53.572;10.170;2022-09-13T16:31:54;4.75;;;1.02;;
46090;SDS011;31826;53.572;10.170;2022-09-13T16:34:23;4.30;;;0.90;;
46090;SDS011;31826;53.572;10.170;2022-09-13T16:36:49;3.53;;;1.00;;
46090;SDS011;31826;53.572;10.170;2022-09-13T16:39:15;4.17;;;1.07;;
46090;SDS011;31826;53.572;10.170;2022-09-13T16:41:41;5.57;;;1.70;;
46090;SDS011;31826;53.572;10.170;2022-09-13T16:44:07;5.87;;;1.07;;
46090;SDS011;31826;53.572;10.170;2022-09-13T16:46:33;4.90;;;1.10;;
46090;SDS011;31826;53.572;10.170;2022-09-13T16:48:59;4.53;;;1.08;;
46090;SDS011;31826;53.572;10.170;2022-09-13T16:51:25;5.37;;;1.00;;
46090;SDS011;31826;53.572;10.170;2022-09-13T16:53:51;2.20;;;1.00;;
46090;SDS011;31826;53.572;10.170;2022-09-13T16:56:19;4.60;;;1.00;;
46090;SDS011;31826;53.572;10.170;2022-09-13T16:58:46;11.03;;;1.37;;
46090;SDS011;31826;53.572;10.170;2022-09-13T17:01:14;4.22;;;1.10;;
46090;SDS011;31826;53.572;10.170;2022-09-13T17:03:42;5.15;;;1.58;;
46090;SDS011;31826;53.572;10.170;2022-09-13T17:06:10;5.07;;;0.93;;
46090;SDS011;31826;53.572;10.170;2022-09-13T17:08:38;4.90;;;1.10;;
46090;SDS011;31826;53.572;10.170;2022-09-13T17:11:06;3.30;;;1.30;;
46090;SDS011;31826;53.572;10.170;2022-09-13T17:13:34;4.57;;;1.15;;
46090;SDS011;31826;53.572;10.170;2022-09-13T17:16:01;2.08;;;0.88;;
46090;SDS011;31826;53.572;10.170;2022-09-13T17:18:27;3.33;;;0.90;;
46090;SDS011;31826;53.572;10.170;2022-09-13T17:20:53;4.93;;;1.60;;
46090;SDS011;31826;53.572;10.170;2022-09-13T17:23:19;6.13;;;1.90;;
46090;SDS011;31826;53.572;10.170;2022-09-13T17:25:45;6.40;;;1.52;;
46090;SDS011;31826;53.572;10.170;2022-09-13T17:28:13;6.97;;;1.00;;
46090;SDS011;31826;53.572;10.170;2022-09-13T17:30:40;4.82;;;1.10;;
46090;SDS011;31826;53.572;10.170;2022-09-13T17:33:06;3.80;;;0.87;;
46090;SDS011;31826;53.572;10.170;2022-09-13T17:35:32;4.05;;;1.00;;
46090;SDS011;31826;53.572;10.170;2022-09-13T17:37:59;4.77;;;1.03;;
46090;SDS011;31826;53.572;10.170;2022-09-13T17:40:26;4.37;;;1.20;;
46090;SDS011;31826;53.572;10.170;2022-09-13T17:42:52;6.60;;;1.20;;
46090;SDS011;31826;53.572;10.170;2022-09-13T17:45:18;3.67;;;1.00;;
46090;SDS011;31826;53.572;10.170;2022-09-13T17:47:44;4.47;;;1.40;;
46090;SDS011;31826;53.572;10.170;2022-09-13T17:50:10;3.33;;;1.13;;
46090;SDS011;31826;53.572;10.170;2022-09-13T17:52:36;5.65;;;1.30;;
46090;SDS011;31826;53.572;10.170;2022-09-13T17:55:02;4.90;;;1.13;;
46090;SDS011;31826;53.572;10.170;2022-09-13T17:57:28;7.18;;;1.17;;
46090;SDS011;31826;53.572;10.170;2022-09-13T17:59:54;3.67;;;1.10;;
46090;SDS011;31826;53.572;10.170;2022-09-13T18:02:20;5.05;;;1.08;;
46090;SDS011;31826;53.572;10.170;2022-09-13T18:04:48;6.88;;;1.48;;
46090;SDS011;31826;53.572;10.170;2022-09-13T18:07:15;6.45;;;1.52;;
46090;SDS011;31826;53.572;10.170;2022-09-13T18:09:41;7.18;;;1.30;;
46090;SDS011;31826;53.572;10.170;2022-09-13T18:12:07;5.97;;;1.40;;
46090;SDS011;31826;53.572;10.170;2022-09-13T18:14:33;5.28;;;1.63;;
46090;SDS011;31826;53.572;10.170;2022-09-13T18:16:59;5.60;;;1.17;;
46090;SDS011;31826;53.572;10.170;2022-09-13T18:19:25;4.47;;;1.30;;
46090;SDS011;31826;53.572;10.170;2022-09-13T18:21:52;4.37;;;1.20;;
46090;SDS011;31826;53.572;10.170;2022-09-13T18:24:18;6.20;;;1.50;;
46090;SDS011;31826;53.572;10.170;2022-09-13T18:26:44;5.70;;;1.20;;
46090;SDS011;31826;53.572;10.170;2022-09-13T18:29:12;6.70;;;1.48;;
46090;SDS011;31826;53.572;10.170;2022-09-13T18:31:39;5.73;;;1.33;;
46090;SDS011;31826;53.572;10.170;2022-09-13T18:34:06;3.58;;;1.10;;
46090;SDS011;31826;53.572;10.170;2022-09-13T18:36:35;3.97;;;1.23;;
46090;SDS011;31826;53.572;10.170;2022-09-13T18:39:02;4.97;;;1.50;;